Nearby METAR Reports

 

KHQM - Hoquiam,WA, USA
Updated: 09/19/2020 6:53am
Overcast
Overcast
 Wind from W
Wind: W 6 mph , 9 km/h
Temperature: 59°F , 15°C
Dew Point: 55°F , 13°C
Humidity: 88%
Barometer: 30.01 inHg , 1016.3 hPa
Clouds: Overcast
Visibility: 10 miles , 16 km
Cloud details: Overcast 700 ft
2020/09/19 13:53 KHQM 191353Z AUTO 26005KT 10SM OVC007 15/13 A3001 RMK AO2 SLP167 T01500133